createdAt,value
2024-01-10T00:00:43.864Z,951.00
2024-01-10T00:01:43.913Z,948.00
2024-01-10T00:02:43.962Z,951.00
2024-01-10T00:03:44.027Z,949.00
2024-01-10T00:04:44.120Z,947.00
2024-01-10T00:05:44.294Z,947.00
2024-01-10T00:06:44.239Z,952.00
2024-01-10T00:07:44.286Z,956.00
2024-01-10T00:08:44.317Z,953.00
2024-01-10T00:09:44.388Z,955.00
2024-01-10T00:10:44.483Z,953.00
2024-01-10T00:11:44.505Z,945.00
2024-01-10T00:12:44.580Z,947.00
2024-01-10T00:13:44.690Z,944.00
2024-01-10T00:14:44.717Z,948.00
2024-01-10T00:15:44.763Z,953.00
2024-01-10T00:16:44.845Z,946.00
2024-01-10T00:17:44.916Z,942.00
2024-01-10T00:18:44.966Z,938.00
2024-01-10T00:19:45.012Z,939.00
2024-01-10T00:20:45.048Z,941.00
2024-01-10T00:21:45.116Z,938.00
2024-01-10T00:22:45.274Z,939.00
2024-01-10T00:23:45.239Z,940.00
2024-01-10T00:24:45.286Z,944.00
2024-01-10T00:25:45.370Z,942.00
2024-01-10T00:26:45.416Z,940.00
2024-01-10T00:27:45.467Z,937.00
2024-01-10T00:28:45.531Z,934.00
2024-01-10T00:29:45.590Z,931.00
2024-01-10T00:30:45.662Z,933.00
2024-01-10T00:31:45.701Z,933.00
2024-01-10T00:32:45.847Z,936.00
2024-01-10T00:33:45.911Z,935.00
2024-01-10T00:34:45.953Z,934.00
2024-01-10T00:35:45.918Z,935.00
2024-01-10T00:36:45.989Z,934.00
2024-01-10T00:37:46.080Z,935.00
2024-01-10T00:38:46.116Z,936.00
2024-01-10T00:39:46.177Z,936.00
2024-01-10T00:40:46.318Z,934.00
2024-01-10T00:41:46.307Z,928.00
2024-01-10T00:42:46.394Z,933.00
2024-01-10T00:43:46.473Z,934.00
2024-01-10T00:44:46.498Z,934.00
2024-01-10T00:45:46.693Z,933.00
2024-01-10T00:46:46.647Z,931.00
2024-01-10T00:47:46.776Z,929.00
2024-01-10T00:48:46.765Z,925.00
2024-01-10T00:49:46.823Z,924.00
2024-01-10T00:50:46.907Z,921.00
2024-01-10T00:51:46.944Z,924.00
2024-01-10T00:52:47.045Z,924.00
2024-01-10T00:53:47.077Z,926.00
2024-01-10T00:54:47.137Z,927.00
2024-01-10T00:55:47.256Z,923.00
2024-01-10T00:56:47.276Z,923.00
2024-01-10T00:57:47.334Z,919.00
2024-01-10T00:58:47.426Z,918.00
2024-01-10T00:59:47.525Z,916.00
2024-01-10T01:00:47.612Z,913.00
2024-01-10T01:01:47.722Z,914.00
2024-01-10T01:02:47.674Z,911.00
2024-01-10T01:03:47.798Z,914.00
2024-01-10T01:04:47.879Z,912.00
2024-01-10T01:05:47.918Z,917.00
2024-01-10T01:06:47.910Z,915.00
2024-01-10T01:07:48.052Z,917.00
2024-01-10T01:08:48.039Z,917.00
2024-01-10T01:09:48.113Z,917.00
2024-01-10T01:10:48.235Z,918.00
2024-01-10T01:11:48.237Z,916.00
2024-01-10T01:12:48.301Z,912.00
2024-01-10T01:13:48.421Z,910.00
2024-01-10T01:14:48.428Z,909.00
2024-01-10T01:15:48.495Z,911.00
2024-01-10T01:16:48.629Z,910.00
2024-01-10T01:17:48.691Z,910.00
2024-01-10T01:18:48.728Z,911.00
2024-01-10T01:19:48.797Z,911.00
2024-01-10T01:20:48.832Z,910.00
2024-01-10T01:21:48.902Z,908.00
2024-01-10T01:22:48.997Z,908.00
2024-01-10T01:23:49.118Z,911.00
2024-01-10T01:24:49.085Z,906.00
2024-01-10T01:25:49.169Z,904.00
2024-01-10T01:26:49.215Z,910.00
2024-01-10T01:27:49.271Z,911.00
2024-01-10T01:28:49.360Z,911.00
2024-01-10T01:29:49.393Z,909.00
2024-01-10T01:30:49.488Z,902.00
2024-01-10T01:31:49.530Z,900.00
2024-01-10T01:32:49.598Z,902.00
2024-01-10T01:33:49.752Z,901.00
2024-01-10T01:34:49.733Z,899.00
2024-01-10T01:35:49.774Z,899.00
2024-01-10T01:36:49.834Z,895.00
2024-01-10T01:37:49.952Z,893.00
2024-01-10T01:38:49.980Z,891.00
2024-01-10T01:39:50.030Z,892.00
2024-01-10T01:40:50.128Z,894.00
2024-01-10T01:41:50.132Z,894.00
2024-01-10T01:42:50.192Z,897.00
2024-01-10T01:43:50.336Z,894.00
2024-01-10T01:44:50.288Z,897.00
2024-01-10T01:45:50.340Z,899.00
2024-01-10T01:46:50.401Z,897.00
2024-01-10T01:47:50.508Z,899.00
2024-01-10T01:48:50.634Z,896.00
2024-01-10T01:49:50.689Z,897.00
2024-01-10T01:50:50.696Z,892.00
2024-01-10T01:51:50.716Z,887.00
2024-01-10T01:52:50.812Z,884.00
2024-01-10T01:53:50.865Z,883.00
2024-01-10T01:54:50.923Z,883.00
2024-01-10T01:55:51.012Z,886.00
2024-01-10T01:56:51.057Z,886.00
2024-01-10T01:57:51.117Z,888.00
2024-01-10T01:58:51.233Z,887.00
2024-01-10T01:59:51.268Z,883.00
2024-01-10T02:00:51.384Z,884.00
2024-01-10T02:01:51.449Z,880.00
2024-01-10T02:02:51.586Z,877.00
2024-01-10T02:03:51.567Z,877.00
2024-01-10T02:04:51.659Z,877.00
2024-01-10T02:05:51.735Z,878.00
2024-01-10T02:06:51.792Z,877.00
2024-01-10T02:07:51.878Z,875.00
2024-01-10T02:08:51.900Z,876.00
2024-01-10T02:09:51.966Z,881.00
2024-01-10T02:10:52.122Z,877.00
2024-01-10T02:11:52.100Z,877.00
2024-01-10T02:12:52.155Z,876.00
2024-01-10T02:13:52.238Z,876.00
2024-01-10T02:14:52.288Z,878.00
2024-01-10T02:15:52.451Z,880.00
2024-01-10T02:16:52.477Z,881.00
2024-01-10T02:17:52.591Z,880.00
2024-01-10T02:18:52.566Z,874.00
2024-01-10T02:19:52.639Z,876.00
2024-01-10T02:20:52.686Z,875.00
2024-01-10T02:21:52.771Z,872.00
2024-01-10T02:22:52.854Z,874.00
2024-01-10T02:23:52.897Z,875.00
2024-01-10T02:24:52.969Z,878.00
2024-01-10T02:25:53.046Z,879.00
2024-01-10T02:26:53.091Z,880.00
2024-01-10T02:27:53.157Z,880.00
2024-01-10T02:28:53.233Z,877.00
2024-01-10T02:29:53.286Z,878.00
2024-01-10T02:30:53.448Z,879.00
2024-01-10T02:31:53.444Z,876.00
2024-01-10T02:32:53.498Z,877.00
2024-01-10T02:33:53.537Z,876.00
2024-01-10T02:34:53.598Z,874.00
2024-01-10T02:35:53.652Z,870.00
2024-01-10T02:36:53.718Z,871.00
2024-01-10T02:37:53.905Z,873.00
2024-01-10T02:38:53.857Z,876.00
2024-01-10T02:39:53.936Z,874.00
2024-01-10T02:40:54.001Z,872.00
2024-01-10T02:41:54.059Z,871.00
2024-01-10T02:42:54.118Z,871.00
2024-01-10T02:43:54.217Z,872.00
2024-01-10T02:44:54.273Z,872.00
2024-01-10T02:45:54.318Z,872.00
2024-01-10T02:46:54.392Z,868.00
2024-01-10T02:47:54.524Z,868.00
2024-01-10T02:48:54.550Z,863.00
2024-01-10T02:49:54.612Z,862.00
2024-01-10T02:50:54.638Z,862.00
2024-01-10T02:51:54.716Z,864.00
2024-01-10T02:52:54.795Z,864.00
2024-01-10T02:53:54.889Z,861.00
2024-01-10T02:54:54.913Z,856.00
2024-01-10T02:55:55.004Z,855.00
2024-01-10T02:56:55.047Z,856.00
2024-01-10T02:57:55.114Z,856.00
2024-01-10T02:58:55.215Z,856.00
2024-01-10T02:59:55.237Z,852.00
2024-01-10T03:00:55.381Z,851.00
2024-01-10T03:01:55.425Z,852.00
2024-01-10T03:02:55.437Z,854.00
2024-01-10T03:03:55.549Z,856.00
2024-01-10T03:04:55.577Z,858.00
2024-01-10T03:05:55.587Z,858.00
2024-01-10T03:06:55.628Z,857.00
2024-01-10T03:07:55.707Z,857.00
2024-01-10T03:08:55.742Z,854.00
2024-01-10T03:09:55.802Z,856.00
2024-01-10T03:10:55.910Z,854.00
2024-01-10T03:11:55.969Z,852.00
2024-01-10T03:12:56.017Z,851.00
2024-01-10T03:13:56.128Z,852.00
2024-01-10T03:14:56.156Z,850.00
2024-01-10T03:15:56.230Z,850.00
2024-01-10T03:16:56.348Z,848.00
2024-01-10T03:17:56.532Z,849.00
2024-01-10T03:18:56.484Z,849.00
2024-01-10T03:19:56.520Z,848.00
2024-01-10T03:20:56.556Z,847.00
2024-01-10T03:21:56.624Z,846.00
2024-01-10T03:22:56.738Z,842.00
2024-01-10T03:23:56.743Z,843.00
2024-01-10T03:24:56.817Z,840.00
2024-01-10T03:25:56.915Z,839.00
2024-01-10T03:26:56.937Z,840.00
2024-01-10T03:27:57.011Z,839.00
2024-01-10T03:28:57.080Z,839.00
2024-01-10T03:29:57.138Z,839.00
2024-01-10T03:30:57.303Z,837.00
2024-01-10T03:31:57.324Z,838.00
2024-01-10T03:32:57.431Z,841.00
2024-01-10T03:33:57.490Z,843.00
2024-01-10T03:34:57.493Z,845.00
2024-01-10T03:35:57.521Z,846.00
2024-01-10T03:36:57.605Z,845.00
2024-01-10T03:37:57.697Z,845.00
2024-01-10T03:38:57.721Z,845.00
2024-01-10T03:39:57.785Z,843.00
2024-01-10T03:40:57.876Z,843.00
2024-01-10T03:41:57.912Z,840.00
2024-01-10T03:42:57.984Z,844.00
2024-01-10T03:43:58.069Z,845.00
2024-01-10T03:44:58.109Z,844.00
2024-01-10T03:45:58.146Z,846.00
2024-01-10T03:46:58.252Z,845.00
2024-01-10T03:47:58.317Z,845.00
2024-01-10T03:48:58.386Z,843.00
2024-01-10T03:49:58.439Z,841.00
2024-01-10T03:50:58.480Z,837.00
2024-01-10T03:51:58.545Z,840.00
2024-01-10T03:52:58.620Z,841.00
2024-01-10T03:53:58.683Z,840.00
2024-01-10T03:54:58.779Z,836.00
2024-01-10T03:55:58.868Z,838.00
2024-01-10T03:56:58.861Z,837.00
2024-01-10T03:57:58.927Z,839.00
2024-01-10T03:58:59.030Z,840.00
2024-01-10T03:59:59.068Z,836.00
2024-01-10T04:00:59.152Z,839.00
2024-01-10T04:01:59.270Z,840.00
2024-01-10T04:02:59.301Z,838.00
2024-01-10T04:03:59.352Z,834.00
2024-01-10T04:04:59.481Z,834.00
2024-01-10T04:05:59.506Z,834.00
2024-01-10T04:06:59.586Z,830.00
2024-01-10T04:07:59.654Z,830.00
2024-01-10T04:08:59.686Z,829.00
2024-01-10T04:09:59.787Z,830.00
2024-01-10T04:10:59.885Z,835.00
2024-01-10T04:11:59.857Z,834.00
2024-01-10T04:12:59.935Z,833.00
2024-01-10T04:14:00.026Z,830.00
2024-01-10T04:15:00.058Z,828.00
2024-01-10T04:16:00.125Z,823.00
2024-01-10T04:17:00.257Z,842.00
2024-01-10T04:18:00.308Z,838.00
2024-01-10T04:19:00.456Z,834.00
2024-01-10T04:20:00.408Z,832.00
2024-01-10T04:21:00.428Z,831.00
2024-01-10T04:22:00.446Z,827.00
2024-01-10T04:23:00.561Z,826.00
2024-01-10T04:24:00.544Z,823.00
2024-01-10T04:25:00.587Z,824.00
2024-01-10T04:26:00.655Z,828.00
2024-01-10T04:27:00.662Z,829.00
2024-01-10T04:28:00.727Z,831.00
2024-01-10T04:29:00.861Z,825.00
2024-01-10T04:30:00.824Z,827.00
2024-01-10T04:31:00.933Z,826.00
2024-01-10T04:32:00.951Z,826.00
2024-01-10T04:33:01.074Z,822.00
2024-01-10T04:34:01.069Z,821.00
2024-01-10T04:35:01.150Z,820.00
2024-01-10T04:36:01.062Z,813.00
2024-01-10T04:37:01.097Z,814.00
2024-01-10T04:38:01.169Z,816.00
2024-01-10T04:39:01.185Z,814.00
2024-01-10T04:40:01.195Z,816.00
2024-01-10T04:41:01.244Z,819.00
2024-01-10T04:42:01.274Z,819.00
2024-01-10T04:43:01.319Z,814.00
2024-01-10T04:44:01.395Z,811.00
2024-01-10T04:45:01.378Z,807.00
2024-01-10T04:46:01.409Z,809.00
2024-01-10T04:47:01.503Z,806.00
2024-01-10T04:48:01.495Z,803.00
2024-01-10T04:49:01.585Z,803.00
2024-01-10T04:50:01.550Z,798.00
2024-01-10T04:51:01.554Z,803.00
2024-01-10T04:52:01.586Z,808.00
2024-01-10T04:53:01.763Z,807.00
2024-01-10T04:54:01.668Z,806.00
2024-01-10T04:55:01.686Z,807.00
2024-01-10T04:56:01.757Z,806.00
2024-01-10T04:57:01.737Z,810.00
2024-01-10T04:58:01.756Z,811.00
2024-01-10T04:59:01.960Z,813.00
2024-01-10T05:00:01.810Z,813.00
2024-01-10T05:01:01.836Z,811.00
2024-01-10T05:02:01.969Z,809.00
2024-01-10T05:03:09.372Z,838.00
2024-01-10T05:04:09.277Z,834.00
2024-01-10T05:05:09.407Z,833.00
2024-01-10T05:06:09.327Z,829.00
2024-01-10T05:07:09.265Z,825.00
2024-01-10T05:08:09.382Z,824.00
2024-01-10T05:09:09.268Z,824.00
2024-01-10T05:10:09.266Z,826.00
2024-01-10T05:11:09.314Z,821.00
2024-01-10T05:12:09.268Z,820.00
2024-01-10T05:13:09.261Z,816.00
2024-01-10T05:14:09.379Z,816.00
2024-01-10T05:15:09.254Z,815.00
2024-01-10T05:16:09.233Z,816.00
2024-01-10T05:17:09.256Z,818.00
2024-01-10T05:18:09.372Z,815.00
2024-01-10T05:19:09.354Z,816.00
2024-01-10T05:20:09.372Z,819.00
2024-01-10T05:21:09.313Z,819.00
2024-01-10T05:22:09.344Z,820.00
2024-01-10T05:23:09.422Z,822.00
2024-01-10T05:24:09.404Z,820.00
2024-01-10T05:25:09.459Z,817.00
2024-01-10T05:26:09.539Z,817.00
2024-01-10T05:27:09.508Z,814.00
2024-01-10T05:28:09.558Z,810.00
2024-01-10T05:29:09.651Z,810.00
2024-01-10T05:30:09.670Z,811.00
2024-01-10T05:31:09.722Z,810.00
2024-01-10T05:32:09.732Z,810.00
2024-01-10T05:33:09.757Z,807.00
2024-01-10T05:34:09.782Z,808.00
2024-01-10T05:35:09.808Z,809.00
2024-01-10T05:36:09.740Z,812.00
2024-01-10T05:37:09.809Z,812.00
2024-01-10T05:38:09.845Z,812.00
2024-01-10T05:39:09.898Z,807.00
2024-01-10T05:40:09.849Z,806.00
2024-01-10T05:41:10.073Z,801.00
2024-01-10T05:42:10.005Z,801.00
2024-01-10T05:43:09.944Z,802.00
2024-01-10T05:44:10.029Z,803.00
2024-01-10T05:45:09.948Z,802.00
2024-01-10T05:46:09.965Z,800.00
2024-01-10T05:47:10.046Z,802.00
2024-01-10T05:48:10.188Z,801.00
2024-01-10T05:49:10.240Z,798.00
2024-01-10T05:50:10.107Z,798.00
2024-01-10T05:51:10.107Z,798.00
2024-01-10T05:52:10.128Z,795.00
2024-01-10T05:53:10.219Z,796.00
2024-01-10T05:54:10.175Z,797.00
2024-01-10T05:55:10.184Z,801.00
2024-01-10T05:56:10.230Z,801.00
2024-01-10T05:57:10.226Z,800.00
2024-01-10T05:58:10.228Z,798.00
2024-01-10T05:59:10.317Z,795.00
2024-01-10T06:00:10.301Z,795.00
2024-01-10T06:01:10.368Z,795.00
2024-01-10T06:02:10.426Z,795.00
2024-01-10T06:03:10.411Z,796.00
2024-01-10T06:04:10.412Z,799.00
2024-01-10T06:05:10.449Z,798.00
2024-01-10T06:06:10.437Z,796.00
2024-01-10T06:07:10.397Z,794.00
2024-01-10T06:08:10.460Z,790.00
2024-01-10T06:09:10.438Z,792.00
2024-01-10T06:10:10.462Z,790.00
2024-01-10T06:11:11.004Z,790.00
2024-01-10T06:12:10.510Z,788.00
2024-01-10T06:13:10.531Z,788.00
2024-01-10T06:14:10.578Z,791.00
2024-01-10T06:15:10.574Z,795.00
2024-01-10T06:16:10.611Z,793.00
2024-01-10T06:17:10.676Z,792.00
2024-01-10T06:18:10.709Z,789.00
2024-01-10T06:19:10.748Z,789.00
2024-01-10T06:20:10.760Z,788.00
2024-01-10T06:21:10.745Z,787.00
2024-01-10T06:22:10.782Z,785.00
2024-01-10T06:23:10.846Z,781.00
2024-01-10T06:24:10.836Z,782.00
2024-01-10T06:25:10.864Z,783.00
2024-01-10T06:26:10.926Z,792.00
2024-01-10T06:27:10.901Z,800.00
2024-01-10T06:28:10.916Z,1114.00
2024-01-10T06:29:10.939Z,1119.00
2024-01-10T06:30:10.985Z,1003.00
2024-01-10T06:31:12.627Z,970.00
2024-01-10T06:32:10.914Z,1015.00
2024-01-10T06:33:10.921Z,1100.00
2024-01-10T06:34:10.899Z,1100.00
2024-01-10T06:35:10.991Z,1105.00
2024-01-10T06:36:10.814Z,1126.00
2024-01-10T06:37:11.421Z,1212.00
2024-01-10T06:38:12.471Z,1235.00
2024-01-10T06:39:10.823Z,1282.00
2024-01-10T06:40:11.377Z,1230.00
2024-01-10T06:41:10.798Z,1236.00
2024-01-10T06:42:10.708Z,1239.00
2024-01-10T06:43:10.680Z,1248.00
2024-01-10T06:44:10.753Z,1247.00
2024-01-10T06:45:10.697Z,1256.00
2024-01-10T06:46:10.705Z,1286.00
2024-01-10T06:47:10.628Z,1316.00
2024-01-10T06:48:10.702Z,1325.00
2024-01-10T06:49:10.591Z,1337.00
2024-01-10T06:50:11.515Z,1384.00
2024-01-10T06:51:10.545Z,1394.00
2024-01-10T06:52:10.517Z,1426.00
2024-01-10T06:53:10.531Z,1437.00
2024-01-10T06:54:10.563Z,1442.00
2024-01-10T06:55:10.662Z,1459.00
2024-01-10T06:56:10.704Z,1467.00
2024-01-10T06:57:10.660Z,1483.00
2024-01-10T06:58:10.698Z,1508.00
2024-01-10T06:59:10.986Z,1522.00
2024-01-10T07:00:10.774Z,1552.00
2024-01-10T07:01:11.432Z,1552.00
2024-01-10T07:02:10.907Z,1562.00
2024-01-10T07:03:10.915Z,1599.00
2024-01-10T07:04:10.879Z,1611.00
2024-01-10T07:05:11.086Z,1619.00
2024-01-10T07:06:11.022Z,1627.00
2024-01-10T07:07:12.961Z,1633.00
2024-01-10T07:08:11.009Z,1651.00
2024-01-10T07:09:10.989Z,1677.00
2024-01-10T07:10:10.999Z,1732.00
2024-01-10T07:11:11.063Z,1737.00
2024-01-10T07:12:11.061Z,1746.00
2024-01-10T07:13:11.149Z,1769.00
2024-01-10T07:14:11.119Z,1787.00
2024-01-10T07:15:11.099Z,1806.00
2024-01-10T07:16:11.104Z,1820.00
2024-01-10T07:17:11.163Z,1836.00
2024-01-10T07:18:11.165Z,1856.00
2024-01-10T07:19:11.085Z,1871.00
2024-01-10T07:20:12.023Z,1950.00
2024-01-10T07:21:11.053Z,1918.00
2024-01-10T07:22:10.992Z,1519.00
2024-01-10T07:23:10.986Z,1379.00
2024-01-10T07:24:11.946Z,1308.00
2024-01-10T07:25:10.942Z,1383.00
2024-01-10T07:26:11.025Z,1101.00
2024-01-10T07:27:10.917Z,1102.00
2024-01-10T07:28:10.908Z,1116.00
2024-01-10T07:29:10.990Z,1022.00
2024-01-10T07:30:10.945Z,1028.00
2024-01-10T07:31:11.021Z,1152.00
2024-01-10T07:32:10.921Z,1267.00
2024-01-10T07:33:11.054Z,1360.00
2024-01-10T07:34:11.161Z,1374.00
2024-01-10T07:35:11.124Z,1431.00
2024-01-10T07:36:10.891Z,1518.00
2024-01-10T07:37:10.898Z,1527.00
2024-01-10T07:38:11.561Z,1584.00
2024-01-10T07:39:10.970Z,1611.00
2024-01-10T07:40:11.125Z,1658.00
2024-01-10T07:41:11.133Z,1665.00
2024-01-10T07:42:11.099Z,1749.00
2024-01-10T07:43:11.122Z,1751.00
2024-01-10T07:44:11.165Z,1761.00
2024-01-10T07:45:11.175Z,1823.00
2024-01-10T07:46:11.179Z,1841.00
2024-01-10T07:47:11.270Z,1861.00
2024-01-10T07:48:11.289Z,1877.00
2024-01-10T07:49:11.233Z,1924.00
2024-01-10T07:50:11.253Z,1937.00
2024-01-10T07:51:11.247Z,1998.00
2024-01-10T07:52:11.178Z,2194.00
2024-01-10T07:53:11.216Z,2067.00
2024-01-10T07:54:11.140Z,2043.00
2024-01-10T07:55:11.117Z,2055.00
2024-01-10T07:56:11.978Z,2094.00
2024-01-10T07:57:11.962Z,2100.00
2024-01-10T07:58:11.036Z,2128.00
2024-01-10T07:59:11.089Z,2163.00
2024-01-10T08:00:10.968Z,2205.00
2024-01-10T08:01:10.997Z,2219.00
2024-01-10T08:02:10.935Z,2242.00
2024-01-10T08:03:10.878Z,2284.00
2024-01-10T08:04:12.823Z,2293.00
2024-01-10T08:05:10.955Z,2302.00
2024-01-10T08:06:17.846Z,2319.00
2024-01-10T08:07:11.757Z,2351.00
2024-01-10T08:08:10.795Z,2457.00
2024-01-10T08:09:10.685Z,2439.00
2024-01-10T08:10:10.722Z,2443.00
2024-01-10T08:11:10.659Z,2468.00
2024-01-10T08:12:10.575Z,2493.00
2024-01-10T08:13:10.550Z,2510.00
2024-01-10T08:14:10.583Z,2529.00
2024-01-10T08:15:10.501Z,2564.00
2024-01-10T08:16:10.964Z,2576.00
2024-01-10T08:17:10.560Z,2574.00
2024-01-10T08:18:10.563Z,2566.00
2024-01-10T08:19:10.579Z,2569.00
2024-01-10T08:20:10.697Z,2576.00
2024-01-10T08:21:10.554Z,2573.00
2024-01-10T08:22:10.561Z,2620.00
2024-01-10T08:23:10.546Z,2604.00
2024-01-10T08:24:10.528Z,2630.00
2024-01-10T08:25:10.530Z,2705.00
2024-01-10T08:26:10.737Z,2718.00
2024-01-10T08:27:10.568Z,2747.00
2024-01-10T08:28:10.598Z,2786.00
2024-01-10T08:29:10.680Z,2808.00
2024-01-10T08:30:10.652Z,2832.00
2024-01-10T08:31:10.683Z,2925.00
2024-01-10T08:32:10.680Z,2907.00
2024-01-10T08:33:10.717Z,2909.00
2024-01-10T08:34:10.674Z,2907.00
2024-01-10T08:35:11.055Z,2975.00
2024-01-10T08:36:10.649Z,2993.00
2024-01-10T08:37:10.687Z,3001.00
2024-01-10T08:38:10.766Z,3008.00
2024-01-10T08:39:11.476Z,3019.00
2024-01-10T08:40:10.736Z,3065.00
2024-01-10T08:41:10.784Z,3091.00
2024-01-10T08:42:10.746Z,3096.00
2024-01-10T08:43:10.762Z,3115.00
2024-01-10T08:44:10.803Z,3133.00
2024-01-10T08:45:10.794Z,3173.00
2024-01-10T08:46:10.879Z,3177.00
2024-01-10T08:47:10.925Z,3187.00
2024-01-10T08:48:11.283Z,3201.00
2024-01-10T08:49:10.958Z,3205.00
2024-01-10T08:50:11.033Z,3217.00
2024-01-10T08:51:10.943Z,3279.00
2024-01-10T08:52:10.990Z,3286.00
2024-01-10T08:53:11.052Z,3283.00
2024-01-10T08:54:11.053Z,3314.00
2024-01-10T08:55:13.396Z,3340.00
2024-01-10T08:56:11.084Z,3347.00
2024-01-10T08:57:10.993Z,3365.00
2024-01-10T08:58:10.945Z,3387.00
2024-01-10T08:59:10.923Z,3406.00
2024-01-10T09:00:10.870Z,3453.00
2024-01-10T09:01:10.884Z,3467.00
2024-01-10T09:02:10.843Z,3474.00
2024-01-10T09:03:10.801Z,3492.00
2024-01-10T09:04:10.749Z,3502.00
2024-01-10T09:05:10.755Z,3508.00
2024-01-10T09:06:11.881Z,3547.00
2024-01-10T09:07:10.713Z,3585.00
2024-01-10T09:08:10.578Z,3594.00
2024-01-10T09:09:10.506Z,3619.00
2024-01-10T09:10:10.458Z,3690.00
2024-01-10T09:11:10.553Z,3344.00
2024-01-10T09:12:10.377Z,2413.00
2024-01-10T09:13:10.402Z,1598.00
2024-01-10T09:14:10.608Z,1439.00
2024-01-10T09:15:10.267Z,1287.00
2024-01-10T09:16:10.233Z,1275.00
2024-01-10T09:17:10.315Z,1128.00
2024-01-10T09:18:10.264Z,1150.00
2024-01-10T09:19:11.875Z,1396.00
2024-01-10T09:20:11.002Z,1373.00
2024-01-10T09:21:10.212Z,1450.00
2024-01-10T09:22:10.993Z,1478.00
2024-01-10T09:23:10.111Z,1407.00
2024-01-10T09:24:18.242Z,1424.00
2024-01-10T09:25:11.076Z,1441.00
2024-01-10T09:26:10.104Z,1442.00
2024-01-10T09:27:10.916Z,1444.00
2024-01-10T09:28:09.963Z,1443.00
2024-01-10T09:29:09.987Z,1444.00
2024-01-10T09:30:10.212Z,1442.00
2024-01-10T09:31:09.965Z,1448.00
2024-01-10T09:32:09.868Z,1452.00
2024-01-10T09:33:09.950Z,1456.00
2024-01-10T09:34:09.877Z,1458.00
2024-01-10T09:35:09.967Z,1461.00
2024-01-10T09:36:09.705Z,1457.00
2024-01-10T09:37:09.674Z,1459.00
2024-01-10T09:38:09.650Z,1454.00
2024-01-10T09:39:09.592Z,1457.00
2024-01-10T09:40:09.647Z,1457.00
2024-01-10T09:41:09.553Z,1462.00
2024-01-10T09:42:09.488Z,1460.00
2024-01-10T09:43:09.459Z,1460.00
2024-01-10T09:44:09.473Z,1456.00
2024-01-10T09:45:09.450Z,1458.00
2024-01-10T09:46:09.925Z,1456.00
2024-01-10T09:47:09.364Z,1454.00
2024-01-10T09:48:10.454Z,1450.00
2024-01-10T09:49:09.362Z,1457.00
2024-01-10T09:50:10.138Z,1459.00
2024-01-10T09:51:09.243Z,1455.00
2024-01-10T09:52:09.174Z,1453.00
2024-01-10T09:53:09.262Z,1455.00
2024-01-10T09:54:09.109Z,1456.00
2024-01-10T09:55:10.009Z,1457.00
2024-01-10T09:56:09.065Z,1459.00
2024-01-10T09:57:09.008Z,1457.00
2024-01-10T09:58:08.966Z,1455.00
2024-01-10T09:59:08.970Z,1451.00
2024-01-10T10:00:08.892Z,1453.00
2024-01-10T10:01:08.939Z,1452.00
2024-01-10T10:02:08.920Z,1449.00
2024-01-10T10:03:08.839Z,1446.00
2024-01-10T10:04:09.027Z,1444.00
2024-01-10T10:05:08.848Z,1444.00
2024-01-10T10:06:09.616Z,1442.00
2024-01-10T10:07:08.764Z,1441.00
2024-01-10T10:08:08.733Z,1445.00
2024-01-10T10:09:08.632Z,1445.00
2024-01-10T10:10:08.632Z,1445.00
2024-01-10T10:11:09.554Z,1444.00
2024-01-10T10:12:09.440Z,1446.00
2024-01-10T10:13:08.622Z,1444.00
2024-01-10T10:14:08.638Z,1444.00
2024-01-10T10:15:08.596Z,1440.00
2024-01-10T10:16:09.543Z,1439.00
2024-01-10T10:17:08.617Z,1439.00
2024-01-10T10:18:08.642Z,1440.00
2024-01-10T10:19:08.581Z,1438.00
2024-01-10T10:20:08.690Z,1440.00
2024-01-10T10:21:08.575Z,1437.00
2024-01-10T10:22:09.540Z,1436.00
2024-01-10T10:23:09.548Z,1437.00
2024-01-10T10:24:08.557Z,1437.00
2024-01-10T10:25:08.846Z,1434.00
2024-01-10T10:26:08.564Z,1434.00
2024-01-10T10:27:08.523Z,1430.00
2024-01-10T10:28:13.141Z,1426.00
2024-01-10T10:29:09.653Z,1426.00
2024-01-10T10:30:08.437Z,1422.00
2024-01-10T10:31:08.396Z,1426.00
2024-01-10T10:32:09.069Z,1429.00
2024-01-10T10:33:09.157Z,1428.00
2024-01-10T10:34:08.316Z,1423.00
2024-01-10T10:35:12.347Z,1422.00
2024-01-10T10:36:09.301Z,1422.00
2024-01-10T10:37:08.194Z,1419.00
2024-01-10T10:38:08.213Z,1418.00
2024-01-10T10:39:08.145Z,1417.00
2024-01-10T10:40:08.125Z,1416.00
2024-01-10T10:41:08.106Z,1416.00
2024-01-10T10:42:09.056Z,1416.00
2024-01-10T10:43:08.021Z,1418.00
2024-01-10T10:44:08.032Z,1416.00
2024-01-10T10:45:07.964Z,1418.00
2024-01-10T10:46:07.923Z,1414.00
2024-01-10T10:47:12.322Z,1411.00
2024-01-10T10:48:08.962Z,1408.00
2024-01-10T10:49:07.945Z,1409.00
2024-01-10T10:50:07.795Z,1408.00
2024-01-10T10:51:07.749Z,1406.00
2024-01-10T10:52:07.718Z,1408.00
2024-01-10T10:53:07.701Z,1405.00
2024-01-10T10:54:07.665Z,1400.00
2024-01-10T10:55:07.639Z,1402.00
2024-01-10T10:56:07.601Z,1406.00
2024-01-10T10:57:08.453Z,1404.00
2024-01-10T10:58:11.322Z,1402.00
2024-01-10T10:59:07.540Z,1404.00
2024-01-10T11:00:07.503Z,1403.00
2024-01-10T11:01:07.470Z,1402.00
2024-01-10T11:02:07.432Z,1400.00
2024-01-10T11:03:07.378Z,1396.00
2024-01-10T11:04:07.377Z,1392.00
2024-01-10T11:05:07.482Z,1394.00
2024-01-10T11:06:07.527Z,1394.00
2024-01-10T11:07:07.701Z,1398.00
2024-01-10T11:08:07.257Z,1403.00
2024-01-10T11:09:08.021Z,1402.00
2024-01-10T11:10:07.182Z,1592.00
2024-01-10T11:11:07.164Z,1510.00
2024-01-10T11:12:07.116Z,1273.00
2024-01-10T11:13:07.126Z,1027.00
2024-01-10T11:14:07.200Z,919.00
2024-01-10T11:15:07.144Z,812.00
2024-01-10T11:16:07.156Z,806.00
2024-01-10T11:17:07.222Z,774.00
2024-01-10T11:18:07.300Z,861.00
2024-01-10T11:19:07.354Z,784.00
2024-01-10T11:20:07.995Z,781.00
2024-01-10T11:21:07.388Z,862.00
2024-01-10T11:22:07.416Z,807.00
2024-01-10T11:23:08.078Z,846.00
2024-01-10T11:24:07.506Z,841.00
2024-01-10T11:25:07.533Z,855.00
2024-01-10T11:26:09.616Z,848.00
2024-01-10T11:27:07.603Z,871.00
2024-01-10T11:28:08.269Z,866.00
2024-01-10T11:29:07.678Z,857.00
2024-01-10T11:30:07.763Z,857.00
2024-01-10T11:31:07.786Z,852.00
2024-01-10T11:32:07.769Z,875.00
2024-01-10T11:33:07.775Z,872.00
2024-01-10T11:34:07.786Z,1042.00
2024-01-10T11:35:07.868Z,859.00
2024-01-10T11:36:07.771Z,850.00
2024-01-10T11:37:07.772Z,847.00
2024-01-10T11:38:07.785Z,850.00
2024-01-10T11:39:07.774Z,852.00
2024-01-10T11:40:07.773Z,884.00
2024-01-10T11:41:08.449Z,871.00
2024-01-10T11:42:08.587Z,970.00
2024-01-10T11:43:07.718Z,914.00
2024-01-10T11:44:07.765Z,888.00
2024-01-10T11:45:07.709Z,894.00
2024-01-10T11:46:07.758Z,903.00
2024-01-10T11:47:07.831Z,915.00
2024-01-10T11:48:07.958Z,1074.00
2024-01-10T11:49:08.048Z,1000.00
2024-01-10T11:50:07.953Z,924.00
2024-01-10T11:51:07.984Z,915.00
2024-01-10T11:52:08.027Z,918.00
2024-01-10T11:53:08.135Z,933.00
2024-01-10T11:54:08.110Z,949.00
2024-01-10T11:55:08.153Z,946.00
2024-01-10T11:56:09.140Z,946.00
2024-01-10T11:57:08.248Z,983.00
2024-01-10T11:58:08.257Z,963.00
2024-01-10T11:59:08.337Z,969.00
2024-01-10T12:00:08.563Z,955.00
2024-01-10T12:01:08.476Z,950.00
2024-01-10T12:02:08.534Z,955.00
2024-01-10T12:03:08.487Z,969.00
2024-01-10T12:04:14.571Z,1104.00
2024-01-10T12:05:10.162Z,1024.00
2024-01-10T12:06:10.428Z,1031.00
2024-01-10T12:07:08.596Z,1043.00
2024-01-10T12:08:08.492Z,1086.00
2024-01-10T12:09:08.431Z,1116.00
2024-01-10T12:10:08.480Z,1120.00
2024-01-10T12:11:08.435Z,1127.00
2024-01-10T12:12:08.376Z,1132.00
2024-01-10T12:13:08.393Z,1142.00
2024-01-10T12:14:08.467Z,1140.00
2024-01-10T12:15:10.027Z,1141.00
2024-01-10T12:16:08.545Z,1138.00
2024-01-10T12:17:08.637Z,1138.00
2024-01-10T12:18:08.604Z,1141.00
2024-01-10T12:19:08.674Z,1138.00